Time;durP1;ratioP1;P1;durP2;ratioP2;P2;SDS_P1;SDS_P2;PMS_P1;PMS_P2;Temp;Humidity;BMP_temperature;BMP_pressure;BME280_temperature;BME280_humidity;BME280_pressure;Samples;Min_cycle;Max_cycle;Signal;HPM_P1;HPM_P2
2023/10/04 00:02:14;;;;;;;5.50;1.87;;;;;;;;;;5084072;28;20511;-75
2023/10/04 00:05:08;;;;;;;4.63;1.73;;;;;;;;;;5081382;28;20753;-76
2023/10/04 00:10:39;;;;;;;6.70;2.17;;;;;;;;;;5078456;28;20487;-77
2023/10/04 00:13:08;;;;;;;7.83;2.00;;;;;;;;;;5080449;28;20460;-75
2023/10/04 00:18:31;;;;;;;5.30;1.33;;;;;;;;;;5081313;28;20450;-76
2023/10/04 00:21:02;;;;;;;4.73;1.50;;;;;;;;;;5080027;28;20498;-76
2023/10/04 00:23:49;;;;;;;4.73;1.63;;;;;;;;;;5081830;28;20487;-76
2023/10/04 00:26:47;;;;;;;8.87;2.03;;;;;;;;;;5082129;28;20444;-76
2023/10/04 00:29:27;;;;;;;6.03;1.77;;;;;;;;;;5082723;28;20451;-76
2023/10/04 00:32:11;;;;;;;6.50;1.87;;;;;;;;;;5082246;28;20933;-77
2023/10/04 00:34:45;;;;;;;6.67;1.93;;;;;;;;;;5082537;28;20511;-76
2023/10/04 00:37:18;;;;;;;4.10;1.73;;;;;;;;;;5083104;28;20648;-76
2023/10/04 00:39:54;;;;;;;5.27;1.70;;;;;;;;;;5082466;28;20556;-75
2023/10/04 01:47:12;;;;;;;8.80;2.40;;;;;;;;;;5676582;22;20477;-75
2023/10/04 01:49:43;;;;;;;10.10;2.10;;;;;;;;;;5081703;28;20534;-76
2023/10/04 01:52:17;;;;;;;6.20;1.67;;;;;;;;;;5064713;28;20806;-77
2023/10/04 01:54:45;;;;;;;6.97;1.63;;;;;;;;;;5061785;28;20728;-76
2023/10/04 01:57:18;;;;;;;5.50;2.03;;;;;;;;;;5080996;28;20453;-75
2023/10/04 01:59:47;;;;;;;10.53;2.93;;;;;;;;;;5066699;28;20466;-77
2023/10/04 02:02:19;;;;;;;9.17;2.30;;;;;;;;;;5061036;28;20455;-76
2023/10/04 02:04:58;;;;;;;8.70;2.13;;;;;;;;;;5079441;28;20492;-75
2023/10/04 02:07:27;;;;;;;11.37;2.83;;;;;;;;;;5078431;28;20457;-75
2023/10/04 02:09:56;;;;;;;6.23;1.57;;;;;;;;;;5063212;28;20546;-77
2023/10/04 02:12:27;;;;;;;6.33;1.77;;;;;;;;;;5068246;28;20446;-77
2023/10/04 02:14:58;;;;;;;6.60;2.10;;;;;;;;;;5057908;28;20504;-75
2023/10/04 02:17:29;;;;;;;6.53;2.27;;;;;;;;;;5068564;28;20471;-75
2023/10/04 02:19:57;;;;;;;8.23;2.37;;;;;;;;;;5072822;28;20458;-75
2023/10/04 02:22:48;;;;;;;6.00;1.83;;;;;;;;;;5076987;28;20834;-75
2023/10/04 02:25:21;;;;;;;7.10;2.20;;;;;;;;;;5065762;28;20550;-74
2023/10/04 02:27:55;;;;;;;6.80;2.50;;;;;;;;;;5081471;28;20453;-75
2023/10/04 02:30:36;;;;;;;8.13;1.83;;;;;;;;;;5078094;28;20466;-77
2023/10/04 02:33:13;;;;;;;5.97;2.07;;;;;;;;;;5076631;28;20494;-76
2023/10/04 02:35:44;;;;;;;6.00;1.70;;;;;;;;;;5077527;28;20490;-76
2023/10/04 02:38:27;;;;;;;13.37;2.40;;;;;;;;;;5075928;28;20461;-75
2023/10/04 03:54:07;;;;;;;8.60;1.80;;;;;;;;;;5680281;22;20537;-76
2023/10/04 03:56:36;;;;;;;12.53;2.07;;;;;;;;;;5079094;28;20496;-75
2023/10/04 03:59:08;;;;;;;5.73;1.83;;;;;;;;;;5077933;28;20845;-76
2023/10/04 04:01:39;;;;;;;9.03;2.10;;;;;;;;;;5079856;28;20465;-76
2023/10/04 04:04:14;;;;;;;12.17;2.70;;;;;;;;;;5080427;28;20444;-75
2023/10/04 04:06:49;;;;;;;8.33;1.67;;;;;;;;;;5078780;28;20466;-76
2023/10/04 04:09:20;;;;;;;7.40;2.20;;;;;;;;;;5079660;28;20952;-77
2023/10/04 04:11:48;;;;;;;5.30;1.60;;;;;;;;;;5079739;28;20448;-76
2023/10/04 04:14:19;;;;;;;6.00;1.70;;;;;;;;;;5080851;28;20448;-76
2023/10/04 04:16:51;;;;;;;4.93;1.60;;;;;;;;;;5079800;28;20488;-76
2023/10/04 04:19:23;;;;;;;7.57;2.40;;;;;;;;;;5080356;28;20554;-75
2023/10/04 04:21:57;;;;;;;6.20;1.80;;;;;;;;;;5079983;28;20808;-76
2023/10/04 04:24:27;;;;;;;7.37;1.57;;;;;;;;;;5079305;28;20465;-76
2023/10/04 04:59:55;;;;;;;9.73;1.83;;;;;;;;;;5078478;28;20400;-73
2023/10/04 05:02:32;;;;;;;10.53;2.00;;;;;;;;;;5076071;28;20543;-76
2023/10/04 05:05:11;;;;;;;10.57;2.80;;;;;;;;;;5062929;28;20470;-74
2023/10/04 05:07:41;;;;;;;4.83;2.03;;;;;;;;;;5060346;28;20460;-77
2023/10/04 05:10:44;;;;;;;8.50;1.93;;;;;;;;;;5079342;28;20464;-75
2023/10/04 05:19:04;;;;;;;10.80;2.93;;;;;;;;;;5768719;22;20788;-76
2023/10/04 05:21:39;;;;;;;4.03;1.87;;;;;;;;;;5035914;28;20863;-76
2023/10/04 05:24:11;;;;;;;6.27;2.30;;;;;;;;;;5036352;28;20856;-76
2023/10/04 05:26:41;;;;;;;8.13;2.37;;;;;;;;;;5036687;28;20814;-75
2023/10/04 05:29:19;;;;;;;5.63;1.77;;;;;;;;;;5036968;28;20466;-76
2023/10/04 05:31:52;;;;;;;6.60;2.57;;;;;;;;;;5037033;28;20544;-76
2023/10/04 05:34:28;;;;;;;8.40;3.30;;;;;;;;;;5036487;28;20462;-75
2023/10/04 05:37:04;;;;;;;4.20;1.53;;;;;;;;;;5034556;28;20494;-75
2023/10/04 06:05:54;;;;;;;5.97;1.97;;;;;;;;;;5500334;22;20629;-76
2023/10/04 06:08:38;;;;;;;5.97;2.03;;;;;;;;;;5078283;28;20471;-77
2023/10/04 06:11:16;;;;;;;6.67;2.07;;;;;;;;;;5079070;28;20460;-76
2023/10/04 06:13:47;;;;;;;8.90;2.33;;;;;;;;;;5058017;28;20715;-75
2023/10/04 06:16:22;;;;;;;7.23;2.60;;;;;;;;;;5079082;28;20549;-77
2023/10/04 19:16:49;;;;;;;8.43;3.13;;;;;;;;;;4964921;23;20504;-75
2023/10/04 20:24:48;;;;;;;11.47;3.97;;;;;;;;;;1400323;26;20972;-76
2023/10/04 20:27:32;;;;;;;8.43;3.90;;;;;;;;;;4998358;28;20559;-77
2023/10/04 20:30:18;;;;;;;14.53;3.67;;;;;;;;;;4999161;28;20550;-76
2023/10/04 20:32:57;;;;;;;7.10;3.10;;;;;;;;;;5398943;23;20515;-77
2023/10/04 20:35:35;;;;;;;14.83;3.73;;;;;;;;;;4926135;29;20447;-77
2023/10/04 20:38:12;;;;;;;7.30;3.47;;;;;;;;;;4927522;29;20459;-77
2023/10/04 20:59:16;;;;;;;9.27;3.80;;;;;;;;;;5238006;23;21438;-75
2023/10/04 21:01:51;;;;;;;8.37;2.40;;;;;;;;;;4966840;28;20489;-76
2023/10/04 21:06:56;;;;;;;9.03;2.73;;;;;;;;;;4956310;29;20516;-75
2023/10/04 21:09:24;;;;;;;9.33;3.90;;;;;;;;;;4962377;29;20557;-77
2023/10/04 21:17:09;;;;;;;9.23;3.37;;;;;;;;;;5534633;23;20493;-76
2023/10/04 21:19:40;;;;;;;11.63;3.50;;;;;;;;;;4962500;29;20537;-75
2023/10/04 21:22:09;;;;;;;7.33;3.20;;;;;;;;;;4962959;29;20489;-75
2023/10/04 21:24:38;;;;;;;9.27;3.50;;;;;;;;;;4961590;29;20462;-76
2023/10/04 21:27:09;;;;;;;8.87;2.93;;;;;;;;;;4962747;29;20470;-76
2023/10/04 21:29:47;;;;;;;9.27;3.60;;;;;;;;;;4944951;29;20456;-75
2023/10/04 21:32:29;;;;;;;8.37;4.07;;;;;;;;;;4946011;29;20516;-77
2023/10/04 21:34:58;;;;;;;13.07;3.00;;;;;;;;;;4961776;29;20501;-76
2023/10/04 21:37:34;;;;;;;5.70;2.90;;;;;;;;;;4945019;29;20493;-76
2023/10/04 21:50:52;;;;;;;9.83;2.73;;;;;;;;;;5219769;23;20561;-77
2023/10/04 21:53:23;;;;;;;8.30;2.90;;;;;;;;;;4942461;29;20459;-77
2023/10/04 21:55:58;;;;;;;7.83;2.43;;;;;;;;;;4941644;29;20470;-76
2023/10/04 22:01:14;;;;;;;8.97;3.60;;;;;;;;;;4944314;29;20447;-76
2023/10/04 22:03:44;;;;;;;14.40;3.67;;;;;;;;;;4944268;29;20454;-75
2023/10/04 22:06:17;;;;;;;6.63;2.87;;;;;;;;;;4940343;29;20463;-75
2023/10/04 22:08:50;;;;;;;8.93;3.57;;;;;;;;;;4925278;29;20534;-76
2023/10/04 22:11:21;;;;;;;5.53;2.63;;;;;;;;;;4931370;29;20451;-77
2023/10/04 22:13:50;;;;;;;10.07;3.37;;;;;;;;;;4941903;29;20505;-76
2023/10/04 22:16:22;;;;;;;10.70;3.50;;;;;;;;;;4942132;29;20491;-75
2023/10/04 22:18:52;;;;;;;11.57;2.97;;;;;;;;;;4942946;29;20463;-76
2023/10/04 22:24:22;;;;;;;6.67;2.43;;;;;;;;;;4933820;29;20440;-77
2023/10/04 22:26:58;;;;;;;6.03;2.50;;;;;;;;;;4925089;29;20467;-76
2023/10/04 22:29:35;;;;;;;6.47;2.97;;;;;;;;;;4927903;29;20763;-77
2023/10/04 22:35:19;;;;;;;11.80;3.37;;;;;;;;;;4926795;29;20562;-78
2023/10/04 22:38:18;;;;;;;;;;;;;;;;;;;;;
2023/10/04 22:51:39;;;;;;;7.53;2.80;;;;;;;;;;5511993;23;20588;-75
2023/10/04 22:54:12;;;;;;;10.83;3.10;;;;;;;;;;4960718;29;20516;-76
2023/10/04 22:56:46;;;;;;;12.53;2.67;;;;;;;;;;4960697;28;21000;-77
2023/10/04 22:59:45;;;;;;;9.73;3.27;;;;;;;;;;4963377;28;20464;-77
2023/10/04 23:02:25;;;;;;;7.17;3.20;;;;;;;;;;4961905;29;20533;-76
2023/10/04 23:07:36;;;;;;;10.53;3.47;;;;;;;;;;5363252;23;20485;-76
2023/10/04 23:10:15;;;;;;;9.33;3.90;;;;;;;;;;4962444;29;20481;-77
2023/10/04 23:12:46;;;;;;;5.73;3.43;;;;;;;;;;4962498;29;20485;-76
2023/10/04 23:15:26;;;;;;;8.30;2.67;;;;;;;;;;4963242;29;20524;-77
2023/10/04 23:17:58;;;;;;;11.73;3.10;;;;;;;;;;4961944;29;20580;-75
2023/10/04 23:20:37;;;;;;;8.03;2.93;;;;;;;;;;4962151;28;20450;-76
2023/10/04 23:23:11;;;;;;;5.67;2.63;;;;;;;;;;4945430;29;20949;-76
2023/10/04 23:25:44;;;;;;;6.70;3.30;;;;;;;;;;4961274;29;20465;-76
2023/10/04 23:28:14;;;;;;;9.40;3.37;;;;;;;;;;4961090;29;20960;-76
2023/10/04 23:30:43;;;;;;;8.00;2.67;;;;;;;;;;4961937;29;20508;-78
2023/10/04 23:33:17;;;;;;;10.10;3.50;;;;;;;;;;4962217;29;20540;-75
2023/10/04 23:35:46;;;;;;;6.37;2.80;;;;;;;;;;4960989;29;20438;-75
2023/10/04 23:51:22;;;;;;;12.50;2.90;;;;;;;;;;5465576;23;20489;-77
2023/10/04 23:54:13;;;;;;;6.40;2.67;;;;;;;;;;4940069;29;20657;-77
2023/10/04 23:56:57;;;;;;;6.20;2.80;;;;;;;;;;4941553;29;20497;-78
2023/10/04 23:59:27;;;;;;;8.27;3.67;;;;;;;;;;4940232;29;20500;-76
